createdAt,value
2022-12-03T00:01:57.233Z,39.15
2022-12-03T00:04:27.753Z,38.84
2022-12-03T00:06:58.266Z,39.40
2022-12-03T00:09:28.820Z,39.14
2022-12-03T00:12:01.804Z,39.44
2022-12-03T00:14:32.466Z,39.22
2022-12-03T00:17:02.977Z,39.12
2022-12-03T00:19:33.846Z,39.14
2022-12-03T00:22:04.489Z,39.36
2022-12-03T00:24:34.981Z,39.24
2022-12-03T00:27:06.624Z,39.27
2022-12-03T00:29:36.711Z,39.30
2022-12-03T00:32:07.787Z,39.48
2022-12-03T00:34:38.143Z,39.16
2022-12-03T00:37:08.571Z,39.36
2022-12-03T00:39:39.298Z,39.13
2022-12-03T00:42:11.249Z,39.13
2022-12-03T00:44:41.232Z,39.16
2022-12-03T00:47:12.352Z,39.35
2022-12-03T00:49:42.821Z,39.34
2022-12-03T00:52:12.807Z,39.20
2022-12-03T00:54:43.532Z,39.23
2022-12-03T00:57:16.234Z,39.01
2022-12-03T00:59:46.906Z,39.00
2022-12-03T01:02:17.698Z,39.22
2022-12-03T01:04:48.685Z,39.54
2022-12-03T01:07:19.414Z,39.23
2022-12-03T01:09:49.965Z,39.37
2022-12-03T01:12:22.679Z,39.11
2022-12-03T01:14:53.609Z,39.41
2022-12-03T01:17:24.051Z,39.12
2022-12-03T01:19:54.859Z,39.66
2022-12-03T01:22:25.172Z,39.10
2022-12-03T01:24:55.519Z,39.62
2022-12-03T01:27:28.424Z,39.49
2022-12-03T01:29:58.493Z,39.54
2022-12-03T01:32:27.046Z,39.43
2022-12-03T01:34:58.878Z,39.39
2022-12-03T01:37:30.828Z,39.14
2022-12-03T01:40:00.937Z,39.52
2022-12-03T01:42:38.221Z,39.47
2022-12-03T01:45:14.902Z,39.21
2022-12-03T01:47:45.428Z,39.79
2022-12-03T01:50:26.118Z,39.51
2022-12-03T01:53:00.532Z,39.48
2022-12-03T01:55:31.733Z,39.56
2022-12-03T01:58:04.854Z,39.22
2022-12-03T02:00:35.677Z,39.55
2022-12-03T02:03:15.253Z,39.73
2022-12-03T02:05:46.119Z,39.61
2022-12-03T02:08:33.324Z,39.33
2022-12-03T02:11:11.635Z,39.52
2022-12-03T02:13:44.432Z,39.68
2022-12-03T02:16:14.461Z,39.84
2022-12-03T02:18:46.044Z,39.57
2022-12-03T02:21:29.602Z,39.44
2022-12-03T02:24:10.391Z,39.56
2022-12-03T02:26:42.937Z,39.23
2022-12-03T02:29:13.002Z,39.56
2022-12-03T02:31:44.358Z,39.46
2022-12-03T02:34:39.007Z,39.27
2022-12-03T02:37:14.472Z,39.75
2022-12-03T02:39:53.099Z,39.64
2022-12-03T02:42:36.010Z,39.59
2022-12-03T02:45:13.277Z,39.75
2022-12-03T02:47:48.168Z,39.26
2022-12-03T02:50:23.246Z,39.54
2022-12-03T02:52:57.175Z,39.68
2022-12-03T02:55:34.924Z,39.46
2022-12-03T02:58:09.374Z,39.32
2022-12-03T03:00:41.514Z,40.04
2022-12-03T03:03:13.061Z,39.53
2022-12-03T03:05:45.832Z,39.71
2022-12-03T03:08:16.975Z,39.56
2022-12-03T03:10:50.184Z,39.61
2022-12-03T03:13:24.382Z,39.58
2022-12-03T03:15:54.290Z,39.73
2022-12-03T03:18:25.216Z,39.67
2022-12-03T03:20:56.393Z,39.93
2022-12-03T03:23:28.499Z,39.66
2022-12-03T03:26:02.863Z,39.88
2022-12-03T03:28:37.213Z,39.72
2022-12-03T03:31:10.623Z,39.83
2022-12-03T03:33:43.865Z,39.55
2022-12-03T03:36:16.373Z,39.83
2022-12-03T03:38:46.966Z,39.57
2022-12-03T03:41:18.943Z,39.50
2022-12-03T03:43:52.522Z,39.78
2022-12-03T03:46:23.267Z,39.75
2022-12-03T03:48:55.122Z,39.54
2022-12-03T03:51:25.881Z,39.77
2022-12-03T03:53:56.422Z,39.52
2022-12-03T03:56:27.595Z,39.54
2022-12-03T03:59:00.492Z,39.71
2022-12-03T04:01:33.429Z,39.71
2022-12-03T04:04:04.285Z,39.46
2022-12-03T04:06:34.775Z,39.49
2022-12-03T04:09:05.293Z,39.63
2022-12-03T04:11:52.184Z,39.72
2022-12-03T04:14:25.003Z,39.57
2022-12-03T04:16:55.643Z,39.56
2022-12-03T04:19:25.769Z,39.75
2022-12-03T04:22:12.736Z,39.60
2022-12-03T04:24:43.454Z,39.57
2022-12-03T04:27:30.494Z,39.67
2022-12-03T04:30:02.178Z,39.86
2022-12-03T04:32:49.141Z,39.68
2022-12-03T04:35:35.996Z,39.76
2022-12-03T04:38:06.219Z,39.96
2022-12-03T04:40:53.164Z,39.87
2022-12-03T04:43:23.325Z,39.57
2022-12-03T04:45:55.237Z,39.95
2022-12-03T04:48:26.098Z,39.57
2022-12-03T04:50:56.678Z,39.53
2022-12-03T04:53:26.874Z,39.75
2022-12-03T04:55:57.025Z,40.01
2022-12-03T04:58:27.875Z,39.80
2022-12-03T05:01:00.504Z,39.80
2022-12-03T05:03:31.176Z,39.69
2022-12-03T05:06:01.548Z,40.01
2022-12-03T05:08:31.503Z,39.95
2022-12-03T05:11:02.302Z,40.05
2022-12-03T05:13:32.675Z,40.31
2022-12-03T05:16:05.520Z,40.04
2022-12-03T05:18:36.009Z,40.35
2022-12-03T05:21:07.445Z,40.43
2022-12-03T05:23:37.372Z,40.11
2022-12-03T05:26:07.808Z,40.11
2022-12-03T05:28:38.213Z,39.77
2022-12-03T05:31:10.529Z,39.84
2022-12-03T05:33:44.460Z,40.38
2022-12-03T05:36:15.379Z,39.96
2022-12-03T05:38:45.922Z,40.13
2022-12-03T05:41:32.944Z,40.37
2022-12-03T05:44:03.444Z,40.12
2022-12-03T05:46:35.693Z,40.35
2022-12-03T05:49:06.387Z,40.58
2022-12-03T05:51:36.918Z,40.21
2022-12-03T05:54:07.736Z,40.39
2022-12-03T05:56:37.840Z,40.29
2022-12-03T05:59:08.907Z,40.25
2022-12-03T06:01:40.994Z,40.29
2022-12-03T06:04:11.225Z,40.60
2022-12-03T06:06:41.790Z,39.99
2022-12-03T06:09:12.510Z,40.38
2022-12-03T06:11:42.587Z,40.12
2022-12-03T06:14:13.404Z,40.43
2022-12-03T06:16:45.931Z,40.42
2022-12-03T06:19:16.307Z,40.68
2022-12-03T06:21:48.153Z,40.53
2022-12-03T06:24:18.923Z,40.56
2022-12-03T06:26:49.797Z,41.00
2022-12-03T06:29:20.443Z,40.83
2022-12-03T06:31:53.026Z,41.00
2022-12-03T06:34:23.551Z,40.35
2022-12-03T06:36:53.199Z,40.44
2022-12-03T06:39:23.470Z,40.03
2022-12-03T06:41:54.165Z,40.07
2022-12-03T06:44:24.333Z,40.10
2022-12-03T06:46:57.017Z,40.27
2022-12-03T06:49:27.151Z,40.53
2022-12-03T06:51:57.848Z,40.73
2022-12-03T06:54:28.268Z,41.14
2022-12-03T06:56:58.913Z,41.05
2022-12-03T06:59:29.176Z,41.18
2022-12-03T07:02:01.642Z,41.37
2022-12-03T07:04:31.761Z,41.33
2022-12-03T07:07:02.097Z,41.22
2022-12-03T07:09:32.957Z,41.17
2022-12-03T07:12:03.764Z,40.91
2022-12-03T07:14:34.318Z,40.98
2022-12-03T07:17:06.386Z,40.34
2022-12-03T07:19:37.049Z,40.20
2022-12-03T07:22:07.796Z,40.12
2022-12-03T07:24:38.373Z,40.22
2022-12-03T07:27:08.747Z,40.33
2022-12-03T07:29:39.728Z,40.09
2022-12-03T07:32:11.856Z,40.13
2022-12-03T07:34:42.622Z,39.78
2022-12-03T07:37:13.117Z,39.53
2022-12-03T07:39:43.705Z,39.37
2022-12-03T07:42:14.187Z,39.59
2022-12-03T07:44:44.783Z,39.58
2022-12-03T07:47:17.460Z,39.62
2022-12-03T07:49:47.807Z,39.51
2022-12-03T07:52:18.476Z,39.39
2022-12-03T07:54:48.515Z,39.80
2022-12-03T07:57:19.114Z,39.88
2022-12-03T07:59:49.197Z,39.41
2022-12-03T08:02:22.120Z,39.38
2022-12-03T08:04:53.191Z,40.04
2022-12-03T08:07:24.211Z,39.42
2022-12-03T08:09:54.873Z,39.45
2022-12-03T08:12:40.496Z,38.74
2022-12-03T08:15:16.075Z,38.19
2022-12-03T08:17:52.835Z,38.83
2022-12-03T08:20:26.070Z,38.51
2022-12-03T08:22:58.651Z,38.39
2022-12-03T08:25:32.732Z,38.46
2022-12-03T08:28:13.814Z,38.15
2022-12-03T08:30:44.962Z,37.76
2022-12-03T08:33:28.533Z,37.97
2022-12-03T08:35:59.014Z,37.03
2022-12-03T08:38:31.814Z,36.47
2022-12-03T08:41:02.480Z,35.59
2022-12-03T08:43:43.207Z,35.42
2022-12-03T08:46:21.334Z,34.53
2022-12-03T08:48:54.342Z,34.27
2022-12-03T08:51:27.080Z,34.56
2022-12-03T08:54:07.344Z,34.28
2022-12-03T08:56:39.552Z,33.59
2022-12-03T08:59:27.978Z,33.64
2022-12-03T09:02:00.919Z,33.74
2022-12-03T09:04:41.012Z,33.05
2022-12-03T09:07:11.956Z,33.14
2022-12-03T09:09:41.971Z,32.78
2022-12-03T09:12:12.801Z,33.19
2022-12-03T09:14:43.504Z,33.33
2022-12-03T09:17:13.964Z,32.71
2022-12-03T09:19:46.793Z,33.07
2022-12-03T09:22:17.781Z,33.02
2022-12-03T09:24:48.493Z,33.27
2022-12-03T09:27:19.341Z,33.93
2022-12-03T09:29:49.448Z,33.89
2022-12-03T09:32:19.709Z,33.49
2022-12-03T09:35:08.817Z,33.42
2022-12-03T09:37:39.384Z,33.65
2022-12-03T09:40:12.103Z,33.32
2022-12-03T09:42:42.912Z,32.80
2022-12-03T09:45:16.871Z,33.01
2022-12-03T09:47:51.873Z,32.44
2022-12-03T09:50:27.294Z,32.69
2022-12-03T09:53:01.506Z,32.82
2022-12-03T09:55:32.925Z,32.20
2022-12-03T09:58:05.986Z,32.89
2022-12-03T10:00:37.172Z,32.70
2022-12-03T10:03:10.463Z,32.63
2022-12-03T10:05:47.880Z,32.48
2022-12-03T10:08:22.939Z,32.91
2022-12-03T10:10:58.916Z,32.58
2022-12-03T10:13:32.619Z,32.96
2022-12-03T10:16:04.352Z,33.26
2022-12-03T10:18:41.546Z,32.98
2022-12-03T10:21:22.497Z,33.04
2022-12-03T10:23:55.422Z,33.26
2022-12-03T10:26:42.477Z,33.57
2022-12-03T10:29:17.388Z,33.60
2022-12-03T10:31:48.509Z,33.44
2022-12-03T10:34:30.937Z,33.97
2022-12-03T10:37:18.744Z,33.52
2022-12-03T10:40:02.212Z,33.88
2022-12-03T10:42:35.500Z,33.52
2022-12-03T10:45:26.725Z,33.62
2022-12-03T10:48:13.542Z,33.97
2022-12-03T10:50:53.551Z,33.52
2022-12-03T10:53:31.888Z,33.54
2022-12-03T10:56:06.313Z,34.03
2022-12-03T10:58:40.307Z,34.06
2022-12-03T11:01:20.732Z,33.99
2022-12-03T11:03:52.057Z,34.15
2022-12-03T11:06:24.884Z,34.04
2022-12-03T11:09:00.440Z,33.82
2022-12-03T11:11:35.065Z,34.05
2022-12-03T11:14:08.609Z,33.97
2022-12-03T11:17:12.015Z,33.78
2022-12-03T11:19:50.514Z,34.01
2022-12-03T11:22:43.585Z,34.09
2022-12-03T11:25:52.738Z,34.38
2022-12-03T11:28:56.333Z,34.16
2022-12-03T11:31:43.192Z,34.48
2022-12-03T11:34:50.501Z,34.51
2022-12-03T11:37:30.083Z,34.77
2022-12-03T11:40:39.667Z,34.59
2022-12-03T11:43:13.793Z,34.48
2022-12-03T11:45:43.911Z,34.50
2022-12-03T11:48:16.936Z,34.85
2022-12-03T11:50:53.705Z,34.38
2022-12-03T11:53:27.748Z,34.45
2022-12-03T11:56:09.372Z,34.52
2022-12-03T11:58:45.710Z,34.49
2022-12-03T12:01:19.391Z,34.25
2022-12-03T12:03:52.082Z,34.28
2022-12-03T12:06:23.617Z,34.72
2022-12-03T12:09:04.292Z,34.53
2022-12-03T12:11:37.880Z,34.27
2022-12-03T12:14:12.896Z,34.35
2022-12-03T12:16:55.472Z,34.53
2022-12-03T12:19:40.251Z,34.55
2022-12-03T12:22:33.050Z,34.47
2022-12-03T12:25:05.583Z,34.84
2022-12-03T12:27:45.642Z,34.73
2022-12-03T12:30:22.327Z,34.59
2022-12-03T12:32:56.463Z,34.61
2022-12-03T12:35:28.556Z,34.85
2022-12-03T12:38:04.767Z,34.85
2022-12-03T12:40:39.356Z,35.29
2022-12-03T12:43:24.521Z,35.10
2022-12-03T12:45:59.443Z,35.17
2022-12-03T12:48:36.416Z,35.04
2022-12-03T12:51:15.410Z,35.39
2022-12-03T12:53:45.355Z,35.21
2022-12-03T12:56:25.943Z,35.05
2022-12-03T12:58:57.243Z,35.13
2022-12-03T13:01:33.557Z,35.12
2022-12-03T13:04:03.938Z,35.15
2022-12-03T13:06:36.598Z,35.27
2022-12-03T13:09:11.694Z,35.45
2022-12-03T13:11:46.186Z,35.35
2022-12-03T13:14:22.881Z,35.47
2022-12-03T13:16:59.438Z,35.32
2022-12-03T13:19:32.703Z,35.28
2022-12-03T13:22:13.216Z,35.62
2022-12-03T13:24:48.138Z,35.56
2022-12-03T13:27:29.920Z,35.70
2022-12-03T13:30:04.347Z,35.48
2022-12-03T13:32:39.949Z,35.71
2022-12-03T13:35:36.183Z,35.89
2022-12-03T13:38:15.992Z,36.17
2022-12-03T13:40:46.019Z,36.14
2022-12-03T13:43:22.014Z,35.88
2022-12-03T13:45:55.634Z,35.99
2022-12-03T13:48:33.172Z,36.13
2022-12-03T13:51:21.521Z,36.06
2022-12-03T13:53:52.054Z,36.27
2022-12-03T13:56:30.092Z,36.04
2022-12-03T13:59:02.987Z,36.21
2022-12-03T14:01:33.248Z,36.23
2022-12-03T14:04:06.537Z,36.43
2022-12-03T14:06:36.645Z,36.17
2022-12-03T14:09:07.348Z,36.30
2022-12-03T14:11:54.314Z,36.69
2022-12-03T14:14:24.926Z,36.31
2022-12-03T14:16:59.912Z,36.44
2022-12-03T14:19:33.154Z,36.43
2022-12-03T14:22:03.208Z,36.47
2022-12-03T14:24:33.720Z,36.46
2022-12-03T14:27:04.066Z,36.51
2022-12-03T14:29:34.505Z,36.61
2022-12-03T14:32:05.217Z,36.57
2022-12-03T14:34:37.487Z,36.41
2022-12-03T14:37:08.017Z,36.57
2022-12-03T14:39:38.580Z,36.65
2022-12-03T14:42:17.068Z,36.40
2022-12-03T14:44:50.583Z,36.59
2022-12-03T14:47:24.270Z,36.49
2022-12-03T14:49:56.347Z,36.61
2022-12-03T14:52:27.060Z,36.40
2022-12-03T14:54:57.883Z,36.46
2022-12-03T14:57:28.678Z,36.47
2022-12-03T14:59:59.039Z,36.46
2022-12-03T15:02:30.851Z,36.42
2022-12-03T15:05:03.209Z,36.34
2022-12-03T15:07:33.215Z,36.25
2022-12-03T15:10:03.800Z,36.18
2022-12-03T15:12:34.348Z,36.12
2022-12-03T15:15:04.556Z,36.11
2022-12-03T15:17:34.717Z,35.96
2022-12-03T15:20:07.394Z,36.11
2022-12-03T15:22:37.456Z,35.95
2022-12-03T15:25:08.944Z,36.19
2022-12-03T15:27:39.340Z,36.03
2022-12-03T15:30:11.144Z,35.91
2022-12-03T15:32:41.341Z,35.86
2022-12-03T15:35:20.125Z,35.98
2022-12-03T15:37:50.302Z,35.91
2022-12-03T15:40:21.149Z,36.04
2022-12-03T15:42:51.281Z,35.83
2022-12-03T15:45:22.203Z,35.85
2022-12-03T15:47:52.560Z,35.76
2022-12-03T15:50:24.590Z,35.89
2022-12-03T15:52:54.435Z,35.80
2022-12-03T15:55:25.403Z,35.85
2022-12-03T15:57:56.148Z,35.80
2022-12-03T16:00:26.583Z,35.72
2022-12-03T16:02:56.766Z,35.91
2022-12-03T16:05:28.789Z,35.70
2022-12-03T16:07:59.107Z,35.67
2022-12-03T16:10:29.582Z,35.60
2022-12-03T16:12:59.431Z,35.73
2022-12-03T16:15:29.667Z,35.66
2022-12-03T16:17:59.210Z,35.67
2022-12-03T16:20:31.960Z,35.52
2022-12-03T16:23:02.169Z,35.53
2022-12-03T16:25:31.659Z,35.60
2022-12-03T16:28:02.177Z,35.58
2022-12-03T16:30:32.686Z,35.67
2022-12-03T16:33:03.478Z,35.55
2022-12-03T16:35:35.987Z,35.60
2022-12-03T16:38:09.230Z,35.30
2022-12-03T16:40:39.671Z,35.41
2022-12-03T16:43:11.060Z,35.54
2022-12-03T16:46:02.917Z,35.61
2022-12-03T16:48:33.543Z,35.51
2022-12-03T16:51:06.176Z,35.57
2022-12-03T16:53:36.862Z,35.23
2022-12-03T16:56:07.574Z,35.50
2022-12-03T16:58:38.382Z,35.56
2022-12-03T17:01:09.511Z,35.55
2022-12-03T17:03:40.444Z,35.59
2022-12-03T17:06:12.400Z,35.51
2022-12-03T17:08:48.792Z,35.59
2022-12-03T17:11:20.374Z,35.53
2022-12-03T17:13:50.836Z,35.43
2022-12-03T17:16:21.323Z,35.73
2022-12-03T17:18:51.283Z,35.38
2022-12-03T17:21:23.759Z,35.56
2022-12-03T17:23:54.411Z,35.44
2022-12-03T17:26:24.781Z,35.21
2022-12-03T17:28:55.448Z,35.65
2022-12-03T17:31:25.791Z,35.27
2022-12-03T17:33:57.836Z,35.26
2022-12-03T17:36:29.839Z,35.76
2022-12-03T17:38:59.761Z,35.52
2022-12-03T17:41:29.736Z,35.51
2022-12-03T17:43:59.942Z,35.13
2022-12-03T17:46:29.915Z,35.56
2022-12-03T17:49:00.381Z,35.38
2022-12-03T17:51:32.811Z,35.32
2022-12-03T17:54:03.008Z,35.50
2022-12-03T17:56:33.326Z,35.46
2022-12-03T17:59:04.120Z,35.24
2022-12-03T18:01:34.599Z,35.36
2022-12-03T18:04:06.269Z,35.51
2022-12-03T18:06:38.760Z,35.46
2022-12-03T18:09:09.337Z,35.37
2022-12-03T18:11:39.668Z,35.53
2022-12-03T18:14:10.128Z,35.49
2022-12-03T18:16:40.424Z,35.20
2022-12-03T18:19:11.239Z,35.10
2022-12-03T18:21:43.409Z,35.43
2022-12-03T18:24:13.519Z,35.48
2022-12-03T18:26:44.477Z,35.39
2022-12-03T18:29:14.939Z,35.37
2022-12-03T18:31:45.494Z,35.28
2022-12-03T18:34:15.754Z,35.37
2022-12-03T18:36:48.935Z,35.38
2022-12-03T18:39:29.794Z,35.16
2022-12-03T18:42:00.823Z,35.49
2022-12-03T18:44:30.778Z,35.58
2022-12-03T18:47:02.964Z,35.54
2022-12-03T18:49:33.137Z,35.26
2022-12-03T18:52:05.705Z,35.50
2022-12-03T18:54:35.641Z,35.30
2022-12-03T18:57:05.859Z,35.47
2022-12-03T18:59:36.347Z,35.48
2022-12-03T19:02:07.280Z,35.45
2022-12-03T19:04:36.987Z,35.28
2022-12-03T19:07:09.027Z,35.62
2022-12-03T19:09:39.486Z,35.57
2022-12-03T19:12:14.782Z,35.25
2022-12-03T19:14:45.510Z,35.33
2022-12-03T19:17:15.391Z,35.50
2022-12-03T19:19:45.484Z,35.51
2022-12-03T19:22:18.335Z,35.46
2022-12-03T19:24:48.855Z,35.55
2022-12-03T19:27:19.630Z,35.58
2022-12-03T19:29:52.247Z,35.23
2022-12-03T19:32:22.956Z,35.55
2022-12-03T19:34:53.692Z,35.75
2022-12-03T19:37:25.528Z,35.55
2022-12-03T19:39:56.575Z,35.45
2022-12-03T19:42:27.360Z,35.44
2022-12-03T19:44:57.881Z,35.59
2022-12-03T19:47:28.255Z,35.53
2022-12-03T19:49:58.719Z,35.54
2022-12-03T19:52:31.125Z,35.53
2022-12-03T19:55:02.492Z,35.58
2022-12-03T19:57:32.930Z,35.88
2022-12-03T20:00:02.812Z,35.50
2022-12-03T20:02:32.792Z,35.49
2022-12-03T20:05:03.455Z,35.65
2022-12-03T20:07:35.393Z,35.59
2022-12-03T20:10:06.313Z,35.72
2022-12-03T20:12:37.115Z,35.60
2022-12-03T20:15:08.901Z,35.61
2022-12-03T20:17:39.440Z,35.63
2022-12-03T20:20:11.653Z,35.48
2022-12-03T20:22:44.163Z,35.31
2022-12-03T20:25:14.402Z,35.74
2022-12-03T20:27:44.921Z,35.67
2022-12-03T20:30:16.092Z,35.32
2022-12-03T20:32:46.896Z,35.75
2022-12-03T20:35:17.392Z,35.52
2022-12-03T20:37:49.111Z,35.75
2022-12-03T20:40:19.055Z,35.82
2022-12-03T20:42:50.764Z,35.49
2022-12-03T20:45:21.250Z,35.64
2022-12-03T20:47:51.250Z,35.46
2022-12-03T20:50:21.926Z,35.83
2022-12-03T20:53:22.544Z,35.72
2022-12-03T20:55:43.813Z,35.83
2022-12-03T20:58:14.265Z,35.67
2022-12-03T21:00:44.787Z,35.69
2022-12-03T21:03:15.233Z,35.45
2022-12-03T21:05:46.327Z,35.49
2022-12-03T21:08:33.991Z,35.48
2022-12-03T21:11:11.437Z,35.65
2022-12-03T21:13:44.161Z,35.83
2022-12-03T21:16:17.236Z,35.64
2022-12-03T21:18:48.293Z,35.62
2022-12-03T21:21:21.857Z,35.63
2022-12-03T21:23:54.582Z,35.48
2022-12-03T21:26:25.718Z,35.51
2022-12-03T21:28:57.378Z,35.45
2022-12-03T21:31:31.849Z,35.67
2022-12-03T21:34:03.394Z,35.61
2022-12-03T21:36:34.446Z,35.66
2022-12-03T21:39:08.459Z,35.68
2022-12-03T21:41:38.465Z,35.59
2022-12-03T21:44:08.493Z,35.66
2022-12-03T21:47:10.360Z,35.74
2022-12-03T21:49:28.979Z,35.87
2022-12-03T21:51:58.933Z,35.57
2022-12-03T21:54:31.347Z,35.41
2022-12-03T21:57:01.811Z,35.73
2022-12-03T21:59:32.208Z,35.61
2022-12-03T22:02:02.894Z,35.39
2022-12-03T22:04:33.117Z,35.58
2022-12-03T22:07:03.683Z,35.48
2022-12-03T22:09:36.560Z,35.39
2022-12-03T22:12:08.551Z,35.58
2022-12-03T22:14:39.072Z,35.53
2022-12-03T22:17:09.208Z,35.81
2022-12-03T22:19:40.145Z,35.60
2022-12-03T22:22:10.535Z,35.77
2022-12-03T22:24:43.316Z,35.27
2022-12-03T22:27:13.483Z,35.71
2022-12-03T22:29:43.473Z,35.45
2022-12-03T22:32:14.033Z,35.49
2022-12-03T22:34:45.579Z,35.51
2022-12-03T22:37:15.795Z,35.67
2022-12-03T22:39:47.842Z,35.31
2022-12-03T22:42:18.454Z,35.43
2022-12-03T22:44:48.594Z,35.54
2022-12-03T22:47:19.223Z,35.35
2022-12-03T22:49:49.682Z,35.40
2022-12-03T22:52:19.657Z,35.38
2022-12-03T22:54:52.074Z,35.40
2022-12-03T22:57:22.731Z,35.37
2022-12-03T22:59:53.395Z,35.77
2022-12-03T23:02:24.358Z,35.25
2022-12-03T23:04:58.111Z,35.39
2022-12-03T23:07:28.469Z,35.37
2022-12-03T23:10:00.889Z,35.52
2022-12-03T23:12:31.322Z,35.38
2022-12-03T23:15:01.786Z,35.71
2022-12-03T23:17:32.413Z,35.54
2022-12-03T23:20:04.003Z,35.54
2022-12-03T23:22:34.485Z,35.74
2022-12-03T23:25:08.183Z,35.24
2022-12-03T23:27:38.638Z,35.32
2022-12-03T23:30:11.433Z,35.50
2022-12-03T23:32:42.387Z,35.46
2022-12-03T23:35:14.759Z,35.52
2022-12-03T23:37:46.830Z,35.74
2022-12-03T23:40:20.359Z,35.40
2022-12-03T23:42:50.797Z,35.90
2022-12-03T23:45:21.356Z,35.33
2022-12-03T23:47:57.887Z,35.74
2022-12-03T23:50:28.982Z,35.54
2022-12-03T23:52:58.995Z,35.45
2022-12-03T23:55:31.556Z,35.59
2022-12-03T23:58:02.206Z,35.94
